メインページ
METAR-TAF:

METAR-TAF

空港 :

キング・アブドゥルアズィーズ国際空港

ジッダ, サウジアラビア

緯度: 21-42N, 経度: 039-11E, 海抜: 15m

現時点の気象観測

当レポートは32分前の01:00(UTC)に作成
の風 4kt
気温 27°C
湿度 74%
気圧 1009 hPa
視程10km以上
1,500メートル以下は雲なし、積乱雲なし

METAR: OEJN 160100Z 36004KT CAVOK 27/22 Q1009 NOSIG

時間: 04:32 (01:32 UTC)

予報

当レポートは2時間32分前の23:00(UTC)に作成
予報は16日の 00時(UTC)から 17日の 06時(UTC)まで有効
の風 5kt、最大15ktの突風を伴う
視程: 7000m
確率 30% :
16日の 00時(UTC)から 16日の 05時(UTC)まで一時的に
視程: 4000m
広範な塵, 風塵
16日の 06時(UTC)から 16日の 08時(UTC)まで徐々に
西の風 12kt

TAF: OEJN 152300Z 1600/1706 09005G15KT 7000 NSC PROB30 TEMPO 1600/1605 4000 DU BLDU BECMG 1606/1608 26012KT

4,000以上の空港の気象観測と天気予報(METAR報とTAF報)

利用可能な観測所は地図上に黄色い丸と赤い丸で示す。

丸の上にカーソルを重ねると観測所名を参照できる。

次にクリックすると気象観測と天気予報を参照できる。

マップの切り替え:黒色「×」印の緑ボタンをクリックして拡大、「-」印の緑ボタンをクリックして縮小、緑色の三角印をクリックして隣りの地図に切り替え


METAR-TAF: